Time;durP1;ratioP1;P1;durP2;ratioP2;P2;SDS_P1;SDS_P2;PMS_P1;PMS_P2;Temp;Humidity;BMP_temperature;BMP_pressure;BME280_temperature;BME280_humidity;BME280_pressure;Samples;Min_cycle;Max_cycle;Signal;HPM_P1;HPM_P2
2024/01/23 00:01:33;;;;;;;6.70;2.75;;;;;;;-4.59;66.25;99962.00;5067149;28;20040;-54
2024/01/23 00:04:00;;;;;;;3.92;1.73;;;;;;;-4.59;66.59;99963.66;5067206;28;20032;-54
2024/01/23 00:06:27;;;;;;;9.45;3.00;;;;;;;-5.07;66.12;99881.88;5068722;28;20135;-54
2024/01/23 00:08:53;;;;;;;6.78;2.80;;;;;;;-4.62;66.49;99966.13;5040921;28;20091;-55
2024/01/23 00:11:19;;;;;;;8.85;3.17;;;;;;;-4.63;66.26;99939.03;5048763;28;20052;-54
2024/01/23 00:13:49;;;;;;;5.82;2.80;;;;;;;-4.67;66.92;99945.69;5046322;28;20384;-54
2024/01/23 00:16:15;;;;;;;8.23;4.50;;;;;;;-4.66;66.63;99942.34;5048042;28;20045;-52
2024/01/23 00:18:42;;;;;;;8.27;2.17;;;;;;;-4.65;66.25;99941.50;5059351;28;20419;-54
2024/01/23 00:21:08;;;;;;;7.25;3.08;;;;;;;-4.65;66.62;99933.03;5048598;28;20481;-55
2024/01/23 00:23:34;;;;;;;6.00;2.95;;;;;;;-4.63;67.21;99926.34;5052303;28;20062;-52
2024/01/23 00:26:00;;;;;;;5.43;2.45;;;;;;;-4.64;67.26;99917.03;5060415;28;20049;-58
2024/01/23 00:28:26;;;;;;;2.28;1.58;;;;;;;-4.63;66.88;99913.66;5041499;28;20041;-56
2024/01/23 00:30:52;;;;;;;6.60;3.20;;;;;;;-4.75;67.15;99887.13;5046434;28;20045;-54
2024/01/23 00:33:18;;;;;;;9.55;3.47;;;;;;;-4.70;66.89;99913.50;5046444;28;20048;-53
2024/01/23 00:35:44;;;;;;;8.02;3.92;;;;;;;-4.62;67.43;99915.41;5047859;28;20063;-54
2024/01/23 00:38:10;;;;;;;8.75;3.65;;;;;;;-4.65;67.23;99907.69;5047508;28;20118;-54
2024/01/23 00:40:35;;;;;;;9.30;3.38;;;;;;;-4.63;67.57;99896.78;5047779;28;20041;-54
2024/01/23 00:43:01;;;;;;;7.78;3.65;;;;;;;-4.65;67.36;99907.69;5048863;28;20470;-54
2024/01/23 00:45:27;;;;;;;8.43;3.53;;;;;;;-4.60;67.77;99909.53;5048962;28;20037;-49
2024/01/23 00:47:54;;;;;;;6.15;2.63;;;;;;;-4.59;67.79;99892.66;5047623;28;20045;-51
2024/01/23 00:50:19;;;;;;;9.38;3.65;;;;;;;-4.56;68.03;99901.22;5079948;28;20063;-54
2024/01/23 00:52:45;;;;;;;10.18;2.92;;;;;;;-4.54;67.47;99886.03;5048073;28;20132;-57
2024/01/23 00:55:11;;;;;;;8.82;4.07;;;;;;;-4.54;67.48;99898.72;5047742;28;20051;-54
2024/01/23 00:57:37;;;;;;;6.57;3.17;;;;;;;-4.56;68.02;99872.47;5056827;28;20036;-54
2024/01/23 01:00:05;;;;;;;7.22;3.80;;;;;;;-4.51;68.11;99876.00;5059540;28;20048;-54
2024/01/23 01:02:32;;;;;;;6.88;3.17;;;;;;;-4.66;67.83;99840.91;5065833;28;20083;-53
2024/01/23 01:04:58;;;;;;;8.60;3.63;;;;;;;-4.65;67.59;99842.59;5049470;28;20098;-57
2024/01/23 01:07:23;;;;;;;7.60;3.42;;;;;;;-4.45;68.23;99869.38;5064635;28;20068;-54
2024/01/23 01:09:49;;;;;;;6.90;3.03;;;;;;;-4.43;67.63;99871.97;5067499;28;20486;-54
2024/01/23 01:12:15;;;;;;;4.22;2.20;;;;;;;-4.64;67.73;99831.66;5067548;28;20064;-57
2024/01/23 01:14:41;;;;;;;8.10;3.70;;;;;;;-4.40;67.46;99855.19;5067263;28;20044;-54
2024/01/23 01:17:07;;;;;;;6.50;3.30;;;;;;;-4.39;67.62;99854.34;5072305;28;20048;-56
2024/01/23 01:19:33;;;;;;;8.07;3.53;;;;;;;-4.33;67.31;99858.72;5050662;28;20040;-52
2024/01/23 01:21:59;;;;;;;6.30;2.83;;;;;;;-4.34;67.33;99859.53;5063735;28;20037;-54
2024/01/23 01:38:23;;;;;;;12.85;5.20;;;;;;;-3.62;65.93;99845.38;5078839;27;20405;-52
2024/01/23 01:40:48;;;;;;;6.45;3.28;;;;;;;-3.79;65.58;99833.94;5078874;28;20040;-52
2024/01/23 01:43:26;;;;;;;8.73;4.00;;;;;;;-3.77;65.91;99839.06;5060457;28;20076;-55
2024/01/23 01:46:18;;;;;;;10.68;4.18;;;;;;;-3.84;65.66;99840.59;5056524;28;20039;-57
2024/01/23 01:48:46;;;;;;;7.97;3.42;;;;;;;-3.90;65.36;99827.72;5059777;28;20048;-53
2024/01/23 01:51:13;;;;;;;9.73;3.45;;;;;;;-3.89;66.11;99843.00;5081810;28;20564;-51
2024/01/23 01:53:39;;;;;;;6.25;3.22;;;;;;;-3.93;65.68;99843.75;5082966;28;20042;-52
2024/01/23 01:56:06;;;;;;;9.55;3.95;;;;;;;-3.97;66.21;99821.63;5031529;28;20036;-53
2024/01/23 01:58:32;;;;;;;8.73;3.63;;;;;;;-4.02;66.06;99840.09;5082304;28;20687;-51
2024/01/23 02:01:01;;;;;;;7.22;4.03;;;;;;;-3.99;66.50;99802.97;5082729;28;20047;-50
2024/01/23 02:03:27;;;;;;;9.52;3.13;;;;;;;-3.98;66.02;99822.44;5048816;28;20483;-52
2024/01/23 02:05:56;;;;;;;9.40;4.10;;;;;;;-4.00;67.02;99813.09;5064912;28;20093;-51
2024/01/23 02:08:21;;;;;;;6.28;3.50;;;;;;;-4.22;66.64;99781.22;5064137;28;20105;-52
2024/01/23 02:10:47;;;;;;;6.57;2.60;;;;;;;-4.03;67.21;99796.06;5065019;28;20032;-52
2024/01/23 02:13:13;;;;;;;7.05;3.38;;;;;;;-3.95;67.17;99811.53;5063280;28;20052;-50
2024/01/23 02:15:41;;;;;;;10.02;3.30;;;;;;;-3.97;66.74;99805.53;5074522;28;20037;-51
2024/01/23 02:18:07;;;;;;;11.85;4.88;;;;;;;-3.99;67.15;99804.66;5055645;28;20051;-54
2024/01/23 02:20:33;;;;;;;8.55;2.85;;;;;;;-3.93;66.82;99781.97;5082132;28;20044;-52
2024/01/23 02:22:59;;;;;;;10.30;4.22;;;;;;;-3.96;66.91;99779.31;5064377;28;20048;-51
2024/01/23 02:25:25;;;;;;;7.85;4.35;;;;;;;-4.17;66.79;99759.34;5082675;28;20051;-51
2024/01/23 02:27:51;;;;;;;11.48;4.70;;;;;;;-4.21;67.38;99747.41;5077128;28;20036;-55
2024/01/23 02:30:20;;;;;;;11.25;4.35;;;;;;;-3.97;67.09;99798.78;5062066;28;20048;-51
2024/01/23 02:32:46;;;;;;;9.43;4.70;;;;;;;-3.97;67.44;99791.16;5043818;28;20063;-51
2024/01/23 02:35:13;;;;;;;6.88;3.75;;;;;;;-3.95;67.15;99808.97;5050071;28;20054;-52
2024/01/23 02:37:39;;;;;;;8.55;4.40;;;;;;;-4.09;67.16;99768.03;5059495;28;20044;-53
2024/01/23 02:40:06;;;;;;;10.48;4.85;;;;;;;-4.00;67.08;99783.47;5068700;28;20040;-51
2024/01/23 02:42:32;;;;;;;11.02;4.97;;;;;;;-3.93;67.19;99798.06;5050454;28;20044;-56
2024/01/23 02:45:00;;;;;;;13.52;5.22;;;;;;;-3.91;67.47;99790.44;5050687;28;20040;-55
2024/01/23 02:47:26;;;;;;;5.72;2.72;;;;;;;-4.12;67.11;99731.53;5049164;28;20051;-56
2024/01/23 02:49:52;;;;;;;8.65;3.40;;;;;;;-3.90;67.47;99775.28;5034154;28;20048;-51
2024/01/23 02:52:18;;;;;;;8.40;3.95;;;;;;;-3.86;67.41;99768.56;5068256;28;20082;-54
2024/01/23 02:54:44;;;;;;;16.17;5.10;;;;;;;-3.82;67.11;99770.34;5068354;28;20075;-53
2024/01/23 02:57:12;;;;;;;11.18;3.95;;;;;;;-3.79;67.22;99773.00;5050747;28;20068;-54
2024/01/23 02:59:38;;;;;;;10.38;4.60;;;;;;;-4.06;67.24;99752.00;5033322;28;20527;-53
2024/01/23 03:02:04;;;;;;;3.63;2.28;;;;;;;-3.85;66.83;99761.00;5050065;28;20040;-55
2024/01/23 03:04:33;;;;;;;10.15;3.90;;;;;;;-3.98;67.43;99737.81;5068454;28;20044;-54
2024/01/23 03:06:58;;;;;;;8.85;3.80;;;;;;;-3.77;67.19;99761.19;5049516;28;20123;-53
2024/01/23 03:09:24;;;;;;;10.20;4.05;;;;;;;-3.99;67.17;99731.03;5049677;28;20143;-56
2024/01/23 03:11:50;;;;;;;9.48;4.00;;;;;;;-3.79;66.81;99754.34;5050193;28;20090;-56
2024/01/23 03:14:16;;;;;;;11.55;4.63;;;;;;;-3.79;67.33;99752.66;5068467;28;20036;-55
2024/01/23 03:16:42;;;;;;;10.07;5.28;;;;;;;-3.77;67.02;99751.03;5033074;28;20086;-56
2024/01/23 03:19:08;;;;;;;9.23;4.18;;;;;;;-3.74;67.51;99755.31;5067527;28;20068;-56
2024/01/23 03:21:34;;;;;;;5.70;3.55;;;;;;;-3.74;67.59;99743.47;5067101;28;20564;-56
2024/01/23 03:24:03;;;;;;;11.75;4.55;;;;;;;-3.70;66.99;99747.78;5064423;28;20525;-51
2024/01/23 03:26:29;;;;;;;5.68;3.03;;;;;;;-3.74;67.29;99745.16;5067638;28;20522;-56
2024/01/23 03:28:55;;;;;;;5.78;3.20;;;;;;;-3.72;67.12;99740.97;5067408;28;20045;-56
2024/01/23 03:31:21;;;;;;;8.95;4.85;;;;;;;-3.67;67.62;99741.94;5047966;28;20745;-54
2024/01/23 03:33:46;;;;;;;7.45;3.50;;;;;;;-3.62;67.52;99732.75;5065798;28;20041;-53
2024/01/23 03:36:12;;;;;;;8.90;4.05;;;;;;;-3.61;67.34;99748.00;5064624;28;20036;-52
2024/01/23 03:38:38;;;;;;;9.52;4.38;;;;;;;-3.59;67.05;99736.22;5032116;28;20071;-53
2024/01/23 03:41:04;;;;;;;12.77;4.60;;;;;;;-3.54;67.21;99744.78;5050411;28;20048;-56
2024/01/23 03:43:30;;;;;;;8.23;4.60;;;;;;;-3.58;67.34;99737.94;5068118;28;20051;-56
2024/01/23 03:45:56;;;;;;;11.00;4.60;;;;;;;-3.52;66.82;99735.53;5032933;28;20032;-54
2024/01/23 03:48:22;;;;;;;18.73;4.55;;;;;;;-3.51;67.19;99737.22;5067821;28;20049;-54
2024/01/23 03:50:49;;;;;;;10.40;4.38;;;;;;;-3.58;67.19;99737.94;5066882;28;20040;-53
2024/01/23 03:53:14;;;;;;;9.82;4.28;;;;;;;-3.48;66.84;99733.91;5067335;28;20048;-52
2024/01/23 03:55:40;;;;;;;9.45;3.75;;;;;;;-3.52;67.17;99722.81;5067365;28;20036;-52
2024/01/23 03:58:12;;;;;;;9.63;3.78;;;;;;;-3.48;67.47;99727.16;5049258;28;20075;-54
2024/01/23 04:00:40;;;;;;;10.70;5.90;;;;;;;-3.73;67.23;99669.00;5048881;28;20126;-53
2024/01/23 04:03:06;;;;;;;12.93;5.95;;;;;;;-3.45;67.57;99713.63;5065823;28;20111;-54
2024/01/23 04:05:32;;;;;;;11.27;5.15;;;;;;;-3.51;67.25;99711.81;5047618;28;20059;-52
2024/01/23 04:07:58;;;;;;;8.13;4.25;;;;;;;-3.50;67.21;99717.75;5048009;28;20420;-59
2024/01/23 04:10:24;;;;;;;11.00;4.35;;;;;;;-4.03;67.22;99620.91;5026709;28;20048;-55
2024/01/23 04:12:50;;;;;;;9.05;4.00;;;;;;;-3.46;67.16;99706.88;5054627;28;20040;-54
2024/01/23 04:15:15;;;;;;;9.68;4.20;;;;;;;-3.66;67.27;99664.88;5047991;28;20048;-52
2024/01/23 04:17:41;;;;;;;11.63;4.55;;;;;;;-3.62;67.23;99662.47;5048779;28;20350;-54
2024/01/23 04:20:07;;;;;;;12.38;4.25;;;;;;;-3.38;67.03;99707.88;5043909;28;20048;-51
2024/01/23 04:22:35;;;;;;;8.93;4.35;;;;;;;-3.42;67.18;99680.69;5065989;28;20040;-54
2024/01/23 04:25:01;;;;;;;10.10;4.95;;;;;;;-3.38;67.13;99676.50;5065105;28;20048;-57
2024/01/23 04:27:27;;;;;;;9.73;5.22;;;;;;;-3.34;67.39;99702.03;5048192;28;20043;-50
2024/01/23 04:29:52;;;;;;;11.57;4.07;;;;;;;-3.30;67.35;99691.13;5064952;28;20048;-51
2024/01/23 04:32:20;;;;;;;11.50;4.72;;;;;;;-3.27;67.38;99703.88;5047923;28;20607;-55
2024/01/23 04:34:46;;;;;;;11.95;5.18;;;;;;;-3.31;67.23;99719.03;5048051;28;20055;-55
2024/01/23 04:37:14;;;;;;;10.48;4.68;;;;;;;-3.35;67.34;99705.41;5065720;28;20050;-54
2024/01/23 04:39:40;;;;;;;15.90;4.68;;;;;;;-3.38;67.38;99710.41;5042565;28;20083;-55
2024/01/23 04:42:05;;;;;;;10.60;5.22;;;;;;;-3.67;67.24;99633.56;5065735;28;20123;-53
2024/01/23 04:44:31;;;;;;;8.50;3.45;;;;;;;-3.59;67.65;99631.19;5037044;28;20432;-57
2024/01/23 04:46:57;;;;;;;12.32;5.22;;;;;;;-3.32;68.00;99679.19;5046511;28;20075;-55
2024/01/23 04:49:23;;;;;;;11.93;4.55;;;;;;;-3.33;67.96;99672.38;5066209;28;20040;-56
2024/01/23 04:51:49;;;;;;;10.63;4.53;;;;;;;-3.36;68.38;99665.56;5065870;28;20028;-54
2024/01/23 04:54:15;;;;;;;9.85;4.40;;;;;;;-3.36;68.48;99654.53;5066328;28;20047;-55
2024/01/23 04:56:41;;;;;;;18.40;5.82;;;;;;;-3.42;68.52;99652.72;5066053;28;20066;-54
2024/01/23 04:59:07;;;;;;;9.45;4.70;;;;;;;-3.38;68.19;99674.84;5012761;28;20064;-55
2024/01/23 05:01:33;;;;;;;12.60;5.05;;;;;;;-3.46;68.25;99651.81;5027878;28;20047;-52
2024/01/23 05:03:59;;;;;;;10.90;5.35;;;;;;;-3.45;68.80;99658.59;5064589;28;20530;-55
2024/01/23 05:06:29;;;;;;;11.77;5.25;;;;;;;-3.74;68.60;99608.00;5030728;28;20037;-55
2024/01/23 05:08:55;;;;;;;12.32;5.55;;;;;;;-3.46;68.57;99653.50;5045709;28;20037;-56
2024/01/23 05:11:23;;;;;;;18.45;5.88;;;;;;;-3.41;69.05;99636.66;5059040;28;20040;-52
2024/01/23 05:13:49;;;;;;;13.70;5.18;;;;;;;-3.61;69.02;99584.59;5065165;28;20041;-51
2024/01/23 05:16:15;;;;;;;11.35;5.15;;;;;;;-3.83;68.68;99557.88;5064922;28;20086;-55
2024/01/23 05:18:43;;;;;;;9.23;4.65;;;;;;;-3.32;68.48;99623.28;5046554;28;20147;-57
2024/01/23 05:21:09;;;;;;;11.68;4.78;;;;;;;-3.35;68.42;99619.00;5063946;28;20049;-56
2024/01/23 05:23:37;;;;;;;10.18;4.85;;;;;;;-3.44;69.15;99618.78;5065057;28;20036;-53
2024/01/23 05:26:03;;;;;;;8.57;3.97;;;;;;;-3.45;69.46;99623.00;5046918;28;20526;-56
2024/01/23 05:28:29;;;;;;;8.65;4.40;;;;;;;-3.70;69.85;99585.22;5069894;28;20126;-56
2024/01/23 05:30:56;;;;;;;10.95;5.30;;;;;;;-3.48;70.90;99597.56;5064404;28;20560;-57
2024/01/23 05:33:21;;;;;;;14.38;5.53;;;;;;;-3.48;71.31;99604.31;5036119;28;20056;-57
2024/01/23 05:35:47;;;;;;;12.15;5.38;;;;;;;-3.46;72.30;99593.38;5056864;28;20052;-55
2024/01/23 05:38:13;;;;;;;10.82;4.55;;;;;;;-3.50;72.32;99590.72;5065207;28;20190;-54
2024/01/23 05:40:39;;;;;;;8.95;4.45;;;;;;;-3.58;74.76;99589.72;5065449;28;20036;-53
2024/01/23 05:43:05;;;;;;;13.50;5.63;;;;;;;-3.58;74.18;99604.97;5057824;28;20060;-55
2024/01/23 05:45:31;;;;;;;9.50;4.75;;;;;;;-3.61;72.30;99598.13;5045503;28;20037;-56
2024/01/23 05:47:57;;;;;;;13.90;5.75;;;;;;;-3.58;71.91;99595.66;5050460;28;20032;-52
2024/01/23 05:50:24;;;;;;;14.07;6.28;;;;;;;-3.50;71.36;99622.06;5031054;28;20044;-56
2024/01/23 05:52:50;;;;;;;8.77;3.78;;;;;;;-3.55;71.13;99633.81;5064125;28;20063;-57
2024/01/23 05:55:15;;;;;;;15.68;5.22;;;;;;;-3.57;71.22;99635.50;5027813;28;20072;-57
2024/01/23 05:57:41;;;;;;;14.38;5.57;;;;;;;-3.48;71.21;99617.88;5044785;28;20029;-55
2024/01/23 06:00:11;;;;;;;13.75;5.85;;;;;;;-3.44;71.23;99619.66;5064662;28;20235;-56
2024/01/23 06:02:37;;;;;;;11.13;5.07;;;;;;;-3.35;71.13;99623.22;5064190;28;20036;-55
2024/01/23 06:05:03;;;;;;;9.30;4.28;;;;;;;-3.35;70.81;99634.25;5046924;28;20431;-57
2024/01/23 06:07:30;;;;;;;8.60;4.55;;;;;;;-3.29;70.57;99639.44;5064439;28;20067;-52
2024/01/23 06:09:56;;;;;;;10.38;4.93;;;;;;;-3.44;70.30;99626.41;5064929;28;20060;-54
2024/01/23 06:12:22;;;;;;;11.70;4.43;;;;;;;-3.19;69.84;99661.66;5064736;28;20408;-57
2024/01/23 06:14:48;;;;;;;10.13;4.40;;;;;;;-3.20;69.67;99664.19;5040838;28;20045;-57
2024/01/23 06:17:14;;;;;;;10.10;4.55;;;;;;;-3.61;69.60;99599.84;5038572;28;20064;-57
2024/01/23 06:19:40;;;;;;;10.35;4.22;;;;;;;-3.21;69.51;99670.97;5066604;28;20706;-58
2024/01/23 06:22:05;;;;;;;9.85;4.68;;;;;;;-3.55;69.20;99605.00;5047482;28;20055;-57
2024/01/23 06:24:32;;;;;;;14.63;6.25;;;;;;;-3.21;69.05;99660.78;5068562;28;20126;-57
2024/01/23 06:26:58;;;;;;;8.98;4.13;;;;;;;-3.21;68.97;99673.50;5050328;28;20064;-56
2024/01/23 06:29:24;;;;;;;14.88;5.28;;;;;;;-3.21;69.21;99653.16;5069341;28;20068;-53
2024/01/23 06:31:50;;;;;;;13.23;5.43;;;;;;;-3.24;69.07;99647.13;5050548;28;20511;-53
2024/01/23 06:34:17;;;;;;;11.95;5.05;;;;;;;-3.27;69.29;99678.47;5068842;28;20114;-56
2024/01/23 06:36:47;;;;;;;10.55;5.10;;;;;;;-3.29;69.14;99669.94;5050061;28;20574;-58
2024/01/23 06:39:13;;;;;;;9.55;4.28;;;;;;;-3.25;69.79;99666.66;5050257;28;20143;-57
2024/01/23 06:41:39;;;;;;;10.90;4.32;;;;;;;-3.22;69.61;99694.66;5068561;28;20044;-57
2024/01/23 06:44:04;;;;;;;11.73;5.78;;;;;;;-3.15;69.54;99693.97;5068635;28;20044;-58
2024/01/23 06:46:30;;;;;;;10.98;5.35;;;;;;;-3.11;69.73;99687.25;5068390;28;20127;-56
2024/01/23 06:48:56;;;;;;;12.38;7.03;;;;;;;-3.11;69.34;99667.78;5049483;28;20052;-52
2024/01/23 06:51:22;;;;;;;7.60;3.35;;;;;;;-3.09;69.32;99668.63;5063671;28;20070;-57
2024/01/23 06:53:48;;;;;;;11.27;4.28;;;;;;;-3.48;69.31;99568.75;5067426;28;20070;-56
2024/01/23 06:56:13;;;;;;;14.63;6.13;;;;;;;-3.04;69.40;99641.66;5067488;28;20117;-54
2024/01/23 06:58:39;;;;;;;15.68;6.13;;;;;;;-2.97;69.09;99662.09;5067439;28;20036;-57
2024/01/23 07:01:24;;;;;;;10.13;4.30;;;;;;;-2.92;69.01;99681.69;5049821;28;20064;-57
2024/01/23 07:03:50;;;;;;;17.73;6.40;;;;;;;-2.87;68.89;99681.78;5067797;28;20046;-55
2024/01/23 07:06:17;;;;;;;7.35;3.58;;;;;;;-2.86;68.48;99673.31;5050055;28;20081;-58
2024/01/23 07:08:43;;;;;;;13.13;4.60;;;;;;;-2.82;68.56;99673.41;5029412;28;20045;-58
2024/01/23 07:11:09;;;;;;;13.68;5.65;;;;;;;-3.02;68.40;99631.47;5047877;28;20051;-56
2024/01/23 07:13:35;;;;;;;16.13;6.65;;;;;;;-2.95;68.11;99632.47;5049351;28;20036;-57
2024/01/23 07:16:01;;;;;;;9.45;3.90;;;;;;;-2.73;68.17;99668.50;5049415;28;20076;-57
2024/01/23 07:18:27;;;;;;;10.13;4.70;;;;;;;-2.73;68.01;99660.00;5066865;28;20040;-58
2024/01/23 07:20:53;;;;;;;12.60;6.20;;;;;;;-2.79;67.86;99652.28;5067473;28;20049;-59
2024/01/23 07:23:18;;;;;;;11.48;5.63;;;;;;;-2.80;68.48;99645.47;5049294;28;20036;-59
2024/01/23 07:25:45;;;;;;;12.35;5.35;;;;;;;-2.75;68.35;99644.72;5041180;28;20045;-55
2024/01/23 07:28:10;;;;;;;11.32;5.50;;;;;;;-2.70;68.28;99672.78;5032403;28;20162;-56
2024/01/23 07:30:36;;;;;;;16.85;7.53;;;;;;;-2.67;68.32;99640.59;5067321;28;20044;-59
2024/01/23 07:33:02;;;;;;;17.65;7.18;;;;;;;-2.67;68.27;99645.69;5067642;28;20044;-61
2024/01/23 07:35:30;;;;;;;18.33;6.45;;;;;;;-2.57;67.96;99660.31;5050169;28;20032;-63
2024/01/23 07:37:56;;;;;;;10.95;4.95;;;;;;;-2.49;67.66;99672.31;5067019;28;20094;-60
2024/01/23 07:40:22;;;;;;;13.70;5.85;;;;;;;-2.51;67.59;99672.25;5067707;28;20056;-61
2024/01/23 07:42:54;;;;;;;9.98;4.65;;;;;;;-2.77;67.43;99635.31;5067574;28;20040;-61
2024/01/23 07:45:20;;;;;;;14.25;6.13;;;;;;;-2.73;67.64;99637.13;5066148;28;20038;-62
2024/01/23 07:47:47;;;;;;;15.88;5.28;;;;;;;-2.47;67.51;99661.34;5008034;28;20041;-60
2024/01/23 07:50:16;;;;;;;13.05;5.45;;;;;;;-2.69;67.43;99649.06;5050315;28;20601;-59
2024/01/23 07:52:43;;;;;;;9.93;4.70;;;;;;;-2.83;67.29;99617.44;5068619;28;20055;-62
2024/01/23 07:55:12;;;;;;;16.52;5.80;;;;;;;-2.54;67.38;99667.13;5049075;28;20129;-63
2024/01/23 07:57:38;;;;;;;20.40;6.40;;;;;;;-2.74;67.59;99640.50;5067335;28;20041;-61
2024/01/23 08:00:06;;;;;;;18.85;7.45;;;;;;;-2.45;67.61;99672.38;5070076;28;20742;-62
2024/01/23 08:02:35;;;;;;;19.88;5.97;;;;;;;-2.47;67.25;99686.78;5008690;28;20036;-64
2024/01/23 08:05:04;;;;;;;16.00;8.07;;;;;;;-2.87;67.35;99631.75;5052642;28;20116;-62
2024/01/23 08:07:30;;;;;;;;;;;;;;;-2.61;67.45;99685.66;5059460;28;20078;-63
2024/01/23 08:10:03;;;;;;;11.80;4.40;;;;;;;-2.61;67.90;99676.34;5062862;28;19920;-63
2024/01/23 08:12:30;;;;;;;14.52;5.53;;;;;;;-2.59;67.94;99679.78;5049554;28;20085;-61
2024/01/23 08:14:57;;;;;;;14.20;6.32;;;;;;;-2.54;68.00;99674.78;5069729;28;20120;-62
2024/01/23 08:17:23;;;;;;;11.65;6.05;;;;;;;-2.56;67.74;99682.38;5061912;28;20089;-64
2024/01/23 08:19:50;;;;;;;12.85;5.72;;;;;;;-2.57;67.98;99677.28;5031420;28;20044;-60
2024/01/23 08:22:19;;;;;;;15.05;6.75;;;;;;;-2.64;68.08;99670.34;5068697;28;20115;-57
2024/01/23 08:24:46;;;;;;;12.00;5.80;;;;;;;-2.80;67.99;99651.41;5066233;28;20044;-60
2024/01/23 08:27:12;;;;;;;16.10;7.18;;;;;;;-2.61;67.81;99703.47;5016655;28;20071;-57
2024/01/23 08:29:40;;;;;;;11.38;5.05;;;;;;;-2.67;68.20;99693.22;5048170;28;20048;-61
2024/01/23 08:32:08;;;;;;;20.23;6.35;;;;;;;-2.89;68.19;99653.78;5048560;28;20147;-62
2024/01/23 08:34:35;;;;;;;14.25;6.53;;;;;;;-2.55;68.16;99708.69;5047351;28;20068;-60
2024/01/23 08:37:02;;;;;;;18.73;7.28;;;;;;;-2.85;67.98;99654.69;5031432;28;20503;-63
2024/01/23 08:39:29;;;;;;;9.30;5.18;;;;;;;-2.60;68.16;99684.84;5047035;28;20044;-63
2024/01/23 08:41:59;;;;;;;12.63;5.30;;;;;;;-2.77;68.57;99650.59;5048392;28;20036;-64
2024/01/23 08:44:25;;;;;;;16.08;6.72;;;;;;;-2.55;68.33;99688.31;5046496;28;20040;-65
2024/01/23 08:46:52;;;;;;;18.17;6.47;;;;;;;-2.57;68.66;99687.44;5053583;28;20552;-63
2024/01/23 08:49:18;;;;;;;15.18;7.10;;;;;;;-2.53;68.17;99690.91;5048399;28;20266;-64
2024/01/23 08:51:46;;;;;;;16.83;6.55;;;;;;;-2.50;68.48;99683.31;5048722;28;20136;-61
2024/01/23 08:54:18;;;;;;;15.57;8.77;;;;;;;-2.58;68.35;99693.38;5048067;28;20124;-64
2024/01/23 08:56:56;;;;;;;15.05;6.95;;;;;;;-2.60;68.70;99682.28;5047735;28;20068;-63
2024/01/23 08:59:22;;;;;;;13.07;6.40;;;;;;;-2.87;68.60;99625.81;5066344;28;20593;-63
2024/01/23 09:01:48;;;;;;;14.02;5.55;;;;;;;-2.53;68.73;99679.03;5015597;28;20580;-63
2024/01/23 09:04:15;;;;;;;14.88;5.43;;;;;;;-2.49;68.95;99669.75;5051539;28;20098;-57
2024/01/23 09:06:41;;;;;;;13.90;6.00;;;;;;;-2.52;68.33;99665.50;5015135;28;20519;-62
2024/01/23 09:09:08;;;;;;;12.38;4.93;;;;;;;-2.70;68.37;99638.03;5043947;28;20044;-59
2024/01/23 09:11:34;;;;;;;21.42;7.38;;;;;;;-2.44;68.85;99663.91;5015218;28;20071;-61
2024/01/23 09:14:00;;;;;;;11.73;6.47;;;;;;;-2.35;68.66;99658.97;5046924;28;20154;-59
2024/01/23 09:16:27;;;;;;;20.33;8.23;;;;;;;-2.44;68.57;99645.25;5065219;28;20040;-59
2024/01/23 09:18:58;;;;;;;21.13;7.95;;;;;;;-2.37;68.76;99657.25;5048181;28;20040;-55
2024/01/23 09:21:25;;;;;;;10.25;4.75;;;;;;;-2.41;68.62;99646.16;5011345;28;20684;-61
2024/01/23 09:23:51;;;;;;;12.90;5.38;;;;;;;-2.44;68.51;99671.56;4997709;28;20048;-60
2024/01/23 09:26:18;;;;;;;12.40;5.63;;;;;;;-2.69;68.84;99636.34;5043930;28;20077;-57
2024/01/23 09:28:44;;;;;;;20.52;7.85;;;;;;;-2.53;69.02;99652.72;5068486;28;20051;-60
2024/01/23 09:31:11;;;;;;;16.73;7.78;;;;;;;-2.51;68.86;99646.00;5028463;28;20091;-61
2024/01/23 09:33:37;;;;;;;16.98;7.35;;;;;;;-2.46;69.02;99655.38;5039422;28;20052;-60
2024/01/23 09:36:08;;;;;;;13.18;6.80;;;;;;;-2.60;69.22;99628.84;5047516;28;20117;-62
2024/01/23 09:38:34;;;;;;;14.00;6.25;;;;;;;-2.43;69.04;99645.28;5043775;28;20035;-62
2024/01/23 09:41:04;;;;;;;17.08;9.02;;;;;;;-2.40;68.92;99657.19;5047124;28;20131;-62
2024/01/23 09:43:31;;;;;;;21.77;10.23;;;;;;;-2.54;69.03;99664.59;5031284;28;20036;-61
2024/01/23 09:45:59;;;;;;;12.73;5.65;;;;;;;-2.62;69.51;99661.91;5054772;28;20044;-63
2024/01/23 09:48:26;;;;;;;18.20;6.25;;;;;;;-2.51;69.62;99662.09;5066786;28;20414;-59
2024/01/23 09:50:52;;;;;;;22.98;8.13;;;;;;;-2.50;69.47;99651.09;5034925;28;20048;-60
2024/01/23 09:53:23;;;;;;;18.00;6.72;;;;;;;-2.44;69.54;99661.38;5051582;28;20034;-60
2024/01/23 09:55:49;;;;;;;13.15;5.80;;;;;;;-2.43;69.48;99647.81;5051291;28;20054;-61
2024/01/23 09:58:15;;;;;;;18.25;7.88;;;;;;;-2.36;69.67;99644.56;5051399;28;20046;-58
2024/01/23 10:00:41;;;;;;;16.90;6.80;;;;;;;-2.59;69.38;99577.13;5051149;28;20489;-60
2024/01/23 10:03:09;;;;;;;7.82;4.55;;;;;;;-2.63;69.51;99585.56;5069546;28;20044;-60
2024/01/23 10:05:35;;;;;;;14.55;6.70;;;;;;;-2.38;69.47;99628.38;5050727;28;20097;-63
2024/01/23 10:08:02;;;;;;;15.52;5.78;;;;;;;-2.45;69.45;99607.88;5069183;28;20591;-63
2024/01/23 10:10:29;;;;;;;17.38;8.07;;;;;;;-2.37;69.50;99625.00;5051130;28;20044;-64
2024/01/23 10:12:56;;;;;;;16.42;7.63;;;;;;;-2.31;69.38;99630.22;5045776;28;20044;-64
2024/01/23 10:15:22;;;;;;;10.98;5.20;;;;;;;-2.33;69.57;99625.91;5051601;28;20047;-63
2024/01/23 10:17:50;;;;;;;22.60;8.73;;;;;;;-2.32;69.97;99627.63;5068643;28;20036;-64
2024/01/23 10:20:19;;;;;;;17.88;7.13;;;;;;;-2.36;69.67;99630.97;5031078;28;20090;-64
2024/01/23 10:22:46;;;;;;;21.63;7.88;;;;;;;-2.37;69.85;99639.44;5017631;28;20102;-63
2024/01/23 10:25:15;;;;;;;27.05;9.07;;;;;;;-2.34;69.90;99632.69;5003137;28;20064;-59
2024/01/23 10:27:43;;;;;;;13.73;6.32;;;;;;;-2.34;69.72;99635.22;5061448;28;20588;-63
2024/01/23 10:30:10;;;;;;;19.25;7.95;;;;;;;-2.32;70.22;99646.31;5074293;28;20582;-65
2024/01/23 10:32:36;;;;;;;14.68;5.82;;;;;;;-2.34;70.02;99635.22;5050998;28;20042;-70
2024/01/23 10:35:06;;;;;;;15.20;6.00;;;;;;;-2.80;70.06;99564.06;5049150;28;20309;-63
2024/01/23 10:37:32;;;;;;;11.30;4.97;;;;;;;-2.55;70.09;99596.72;5049233;28;20467;-63
2024/01/23 10:39:59;;;;;;;11.27;5.43;;;;;;;-2.48;69.93;99610.41;5065577;28;20051;-64
2024/01/23 10:42:25;;;;;;;17.42;5.45;;;;;;;-2.45;69.91;99597.72;5053324;28;20105;-61
2024/01/23 10:44:51;;;;;;;17.58;8.30;;;;;;;-2.23;69.93;99661.72;5068658;28;20040;-63
2024/01/23 10:47:20;;;;;;;15.82;5.68;;;;;;;-2.57;70.08;99609.44;5067791;28;20029;-63
2024/01/23 10:49:47;;;;;;;17.50;7.75;;;;;;;-2.34;70.29;99654.75;5017200;28;20058;-63
2024/01/23 10:52:17;;;;;;;15.73;5.95;;;;;;;-2.32;70.49;99648.84;5068198;28;20123;-62
2024/01/23 10:54:45;;;;;;;17.25;6.65;;;;;;;-2.33;70.19;99649.69;5068480;28;20440;-63
2024/01/23 10:57:21;;;;;;;14.60;6.90;;;;;;;-2.35;70.34;99656.44;5033715;28;20040;-62
2024/01/23 10:59:47;;;;;;;15.38;6.72;;;;;;;-2.36;70.89;99666.59;5050475;28;20507;-62
2024/01/23 11:02:22;;;;;;;21.85;7.75;;;;;;;-2.43;70.98;99652.91;5068269;28;20058;-63
2024/01/23 11:04:50;;;;;;;19.90;10.38;;;;;;;-2.45;70.87;99656.25;5068123;28;20036;-63
2024/01/23 11:07:20;;;;;;;12.88;6.05;;;;;;;-2.59;71.29;99626.34;5049556;28;20037;-62
2024/01/23 11:10:14;;;;;;;14.63;7.65;;;;;;;-2.43;71.19;99664.78;5049986;28;20061;-62
2024/01/23 11:13:05;;;;;;;11.63;5.25;;;;;;;-2.42;71.59;99656.31;5049219;28;20040;-62
2024/01/23 11:15:31;;;;;;;16.85;6.43;;;;;;;-2.42;71.67;99654.63;5049961;28;20356;-62
2024/01/23 11:18:31;;;;;;;10.48;5.82;;;;;;;-2.45;72.57;99672.38;5032759;28;20094;-64
2024/01/23 11:21:09;;;;;;;;;;;;;;;-2.51;72.59;99654.44;5067719;28;20051;-61
2024/01/23 11:23:37;;;;;;;15.55;6.68;;;;;;;-2.53;73.13;99648.50;5047631;28;19916;-63
2024/01/23 11:26:16;;;;;;;15.32;5.68;;;;;;;-2.49;73.05;99654.47;5047973;28;20040;-63
2024/01/23 11:28:48;;;;;;;18.38;7.55;;;;;;;-2.49;72.82;99650.25;5055567;28;20066;-61
2024/01/23 11:31:22;;;;;;;18.38;6.97;;;;;;;-2.43;73.09;99652.06;5044214;28;20135;-62
2024/01/23 11:33:52;;;;;;;19.77;8.05;;;;;;;-2.45;72.58;99644.38;5061584;28;20036;-63
2024/01/23 11:36:25;;;;;;;13.15;6.20;;;;;;;-2.44;72.41;99651.19;5066351;28;20036;-65
2024/01/23 11:38:58;;;;;;;13.82;6.82;;;;;;;-2.44;72.56;99651.19;5029363;28;20045;-64
2024/01/23 11:41:27;;;;;;;8.38;4.43;;;;;;;-2.64;73.01;99602.50;5048003;28;20570;-60
2024/01/23 11:44:00;;;;;;;18.08;7.30;;;;;;;-2.42;73.36;99639.34;5047769;28;20037;-62